GCXO/TFN METAR and TAF weather

Enter ICAO airport designator
Station Type Date Time Source
GCXO METAR 2018/01/19 17:30 UTC NOAA

GCXO 191730Z 31017KT 280V340 9999 FEW010 SCT017 BKN022 14/10 Q1026 WS R30 NOSIG


Station Type Date Time Source
GCXO Decoded METAR 2018/01/19 17:30 UTC NOAA

Tenerife / Los Rodeos, Spain (GCXO) 28-28N 016-19W 617M
Jan 19, 2018 - 12:30 PM EST / 2018.01.19 1730 UTC
Wind: from the NW (310 degrees) at 20 MPH (17 KT) (direction variable):0
Visibility: greater than 7 mile(s):0
Sky conditions: mostly cloudy
Temperature: 57 F (14 C)
Dew Point: 50 F (10 C)
Relative Humidity: 76%
Pressure (altimeter): 30.30 in. Hg (1026 hPa)
ob: GCXO 191730Z 31017KT 280V340 9999 FEW010 SCT017 BKN022 14/10 Q1026 WS R30 NOSIG
cycle: 17

Station Type Date Time Source
GCXO TAF 2018/01/19 15:27 UTC NOAA

TAF GCXO 191400Z 1915/2015 32015KT 9999 FEW015 TX16/2014Z TN11/2006Z
BECMG 1924/2002 34005KT PROB40
TEMPO 1915/1921 30015G25KT PROB40
TEMPO 1920/2011 2000 DZ BCFG BKN007


Example: see airport list